Vandenberg Air Force Base
KVBG : rendu visible

Aérodrome :











RETROUVEZ-NOUS SUR...

 
LOGIN :

S'inscrire | Disclaimer

   EN    FR    IT 

 









Légende :    VFR   VFR Marginal   IFR   IFR Intensif   IFR Très Intensif
Visi : 
Plafond : 
>= 8 km
>= 3000ft
5 à 8 km
1000 à 3000 ft
1500m à 5 km
500 à 1000 ft
800 à 1500m
200 à 500 ft
< 800m
< 200 ft
Symboles :   Orages  Brouillard  Fortes neiges  Fortes précipitations  Vent > 20 kt






- Altitude de l'aérodrome : 369 ft


KVBG - Vandenberg Air Force Base

DERNIER METAR :
  • 100758Z AUTO 06008KT 9SM CLR 09/06 A3016 RMK AO2 SLP216 T00930056 401690073

METARs EXPIRÉS :
  • 100658Z AUTO 08004KT 9SM CLR 10/06 A3017 RMK AO2 SLP219 T01040062
  • 100558Z AUTO 04006KT 9SM CLR 13/06 A3015 RMK AO2 SLP213 T01260064 10143 20102 50009

TAF COR TAF KVBG
Valide du 10 à 01h jusqu'au 11 à 05h UTC


100102Z 1001/1105 34009KT 9999 SKC QNH3008INS
BECMG 1003/1004 VRB06KT 9999 FEW200 QNH3010INS
BECMG 1017/1018 29009KT 9999 SCT250 QNH3012INS
BECMG 1020/1021 33009KT 9999 FEW020 SCT250 QNH3009INS TX17/1021Z TN09/1012Z LAST NO AMDS AFT 1001 NEXT 1015



MET'MAP, la Météo Aéronautique d'un coup d'oeil ! - Copyright ORBIFLY Décembre 2007 - Disclaimer

ORBIFLY MET'MAP TEAM :

Programmation & Développement : Alexandra Zaïnal
Sur une idée originale de : Baudouin d'Aumeries
Assistance à la programmation : Marc-Olivier Méhu
Soutien technique & logistique : Manuel Goepfert

Contact : metmap@orbifly.com




SOURCES & CREDITS :

   NOAA       Earth
Advisory